Pagrindinis puslapis
METAR-TAF:

METAR-TAF

Oro uostai :

Le Tontutos tarptautinis oro uostas

Numėja La Tontouta, Naujoji Kaledonija

platuma: 22-01S, ilguma: 166-13E, Aukštis: 16 m

Dabartinis oras

Ataskaita buvo paskelbta 35 minutes, ne 03:00 UTC
Vėjas 12 kt iš Pietų/Pietryčių
Temperatūra 25°C
Drėgmė 47%
Slėgis 1018 hPa
Matomumas 10 km arba daugiau
nėra debesų žemiau 1500 m ir nėra kamuolinių lietaus debesų

METAR: NWWW 170300Z AUTO 15012KT CAVOK 25/13 Q1018 BECMG 06005KT

Laikas: 14:35 (03:35 UTC)

Prognozė

Ataskaita buvo paskelbta 4 valandos ir 35 minutes, ne 23:00 UTC
Prognozė galioja nuo 17 metu 00 UTC su 17 metu 24 UTC
Vėjas 5 kt iš Rytų/Šiaurės Rytų
Matomumas 10 km arba daugiau
Mažai debesys ne aukštis 4500 ft
Su prošvaistėmis ne aukštis 6000 ft

TAF: NWWW 162300Z 1700/1724 06005KT 9999 FEW045 BKN060

Orai ataskaitas ir orų prognozės (METAR, TAF).

turimą stotys yra geltonos ir raudonos taškus žemėlapyje.

Perkelti pele per norėdami pamatyti stoties vardą.

Tada spustelėkite, norėdami matyti oro stebėjimo ir prognozės.

Norėdami pakeisti žemėlapį: spustelėkite ant žalios mygtukų su juodo kryžiaus žemyn,; žalią mygtuką su brūkšneliu, jei norite nutolinti; arba žalių rodyklių gretimoms žemėlapius.


METAR-TAF: